Time;durP1;ratioP1;P1;durP2;ratioP2;P2;SDS_P1;SDS_P2;PMS_P1;PMS_P2;Temp;Humidity;BMP_temperature;BMP_pressure;BME280_temperature;BME280_humidity;BME280_pressure;Samples;Min_cycle;Max_cycle;Signal;HPM_P1;HPM_P2
2021/12/05 00:22:14;;;;;;;11.00;3.35;;;5.80;87.50;;;;;;4979146;28;20069;-76
2021/12/05 00:24:45;;;;;;;10.98;3.78;;;5.80;87.50;;;;;;4982140;28;20041;-76
2021/12/05 00:27:22;;;;;;;8.77;3.40;;;5.80;87.40;;;;;;4985146;28;20030;-76
2021/12/05 00:30:19;;;;;;;9.13;3.78;;;5.80;87.40;;;;;;4978121;28;20025;-75
2021/12/05 00:51:52;;;;;;;9.43;3.15;;;5.60;86.90;;;;;;4977398;28;20038;-77
2021/12/05 00:55:00;;;;;;;7.95;2.83;;;5.60;86.80;;;;;;4981378;28;20092;-77
2021/12/05 00:57:33;;;;;;;10.10;3.42;;;5.60;86.90;;;;;;4980504;28;20038;-76
2021/12/05 01:03:16;;;;;;;8.63;3.50;;;5.60;86.80;;;;;;4977852;28;20081;-77
2021/12/05 01:08:40;;;;;;;8.82;2.72;;;5.60;86.80;;;;;;4978342;28;20124;-77
2021/12/05 01:16:33;;;;;;;14.70;4.50;;;5.50;86.50;;;;;;5017840;28;20025;-77
2021/12/05 01:18:59;;;;;;;12.50;3.08;;;5.50;86.40;;;;;;4980949;28;20061;-76
2021/12/05 01:21:26;;;;;;;7.88;2.85;;;5.50;86.50;;;;;;4979365;28;20038;-76
2021/12/05 01:24:01;;;;;;;10.23;3.78;;;5.50;86.50;;;;;;4986125;28;20041;-76
2021/12/05 01:26:52;;;;;;;6.32;2.60;;;5.50;86.40;;;;;;4974020;28;20027;-76
2021/12/05 01:31:55;;;;;;;7.30;2.88;;;5.60;86.40;;;;;;4980623;28;20034;-77
2021/12/05 01:37:08;;;;;;;8.02;3.17;;;5.60;86.20;;;;;;4976818;28;20035;-77
2021/12/05 02:09:35;;;;;;;7.50;2.60;;;5.60;85.90;;;;;;4979132;28;20038;-77
2021/12/05 02:31:52;;;;;;;10.55;2.72;;;5.60;85.60;;;;;;4975556;28;20045;-77
2021/12/05 02:34:41;;;;;;;10.13;2.70;;;5.50;85.50;;;;;;4979879;28;20031;-77
2021/12/05 02:37:16;;;;;;;8.95;3.08;;;5.50;85.60;;;;;;4978192;28;20023;-77
2021/12/05 02:40:18;;;;;;;9.00;2.92;;;5.60;85.60;;;;;;4974160;28;20031;-77
2021/12/05 02:42:53;;;;;;;12.60;3.75;;;5.50;85.40;;;;;;4981183;28;20901;-77
2021/12/05 02:45:18;;;;;;;16.52;3.53;;;5.50;85.40;;;;;;4989408;28;20555;-77
2021/12/05 02:47:49;;;;;;;9.18;3.03;;;5.50;85.40;;;;;;4979475;28;20031;-78
2021/12/05 02:50:17;;;;;;;10.23;3.10;;;5.40;85.30;;;;;;4979711;28;20034;-78
2021/12/05 02:52:43;;;;;;;7.25;2.75;;;5.50;85.50;;;;;;5003447;28;20114;-77
2021/12/05 02:55:13;;;;;;;7.85;2.78;;;5.40;85.30;;;;;;4985847;28;20398;-77
2021/12/05 03:00:20;;;;;;;10.43;3.35;;;5.50;85.80;;;;;;4988681;28;20035;-78
2021/12/05 03:02:48;;;;;;;9.15;3.35;;;5.50;85.40;;;;;;4983000;28;20038;-78
2021/12/05 03:05:15;;;;;;;11.48;3.60;;;5.50;85.40;;;;;;4986948;28;20039;-78
2021/12/05 03:07:43;;;;;;;12.98;3.90;;;5.50;85.40;;;;;;4979427;28;20073;-78
2021/12/05 03:10:12;;;;;;;13.02;4.80;;;5.50;85.30;;;;;;4980368;28;20026;-78
2021/12/05 03:12:39;;;;;;;14.45;3.97;;;5.40;85.10;;;;;;4982236;28;20482;-78
2021/12/05 03:15:08;;;;;;;12.20;3.58;;;5.40;85.30;;;;;;4990172;28;20026;-79
2021/12/05 03:17:37;;;;;;;12.00;3.95;;;5.40;85.30;;;;;;4978443;28;20054;-79
2021/12/05 03:20:05;;;;;;;7.82;2.90;;;5.40;85.30;;;;;;4986032;28;20034;-79
2021/12/05 03:22:31;;;;;;;10.23;3.10;;;5.50;85.40;;;;;;4979527;28;20043;-78
2021/12/05 03:24:57;;;;;;;14.52;3.97;;;5.40;85.40;;;;;;4981033;28;20690;-78
2021/12/05 03:27:22;;;;;;;9.02;3.03;;;5.50;85.40;;;;;;4984554;28;20409;-78
2021/12/05 03:29:48;;;;;;;9.38;3.10;;;5.40;85.20;;;;;;4987398;28;20027;-78
2021/12/05 03:32:14;;;;;;;7.10;2.80;;;5.40;85.40;;;;;;4980951;28;20126;-78
2021/12/05 03:34:39;;;;;;;12.93;3.28;;;5.40;85.50;;;;;;4980373;28;20101;-79
2021/12/05 03:37:05;;;;;;;4.78;2.25;;;5.40;85.40;;;;;;4981266;28;20037;-78
2021/12/05 03:39:31;;;;;;;9.35;3.25;;;5.40;85.40;;;;;;4978875;28;20054;-77
2021/12/05 03:41:57;;;;;;;12.38;3.75;;;5.50;85.50;;;;;;4987554;28;20491;-77
2021/12/05 03:44:29;;;;;;;11.07;3.38;;;5.40;85.40;;;;;;4983311;28;20085;-79
2021/12/05 03:46:55;;;;;;;10.75;3.08;;;5.40;85.50;;;;;;4977478;28;20023;-77
2021/12/05 03:49:23;;;;;;;7.43;2.90;;;5.30;85.40;;;;;;4979841;28;20022;-78
2021/12/05 03:51:58;;;;;;;9.70;2.60;;;5.40;85.50;;;;;;4976192;28;20027;-77
2021/12/05 03:54:24;;;;;;;9.85;3.10;;;5.40;85.60;;;;;;4986999;28;20045;-79
2021/12/05 03:56:50;;;;;;;9.45;3.58;;;5.40;85.50;;;;;;4983378;28;20613;-77
2021/12/05 03:59:18;;;;;;;10.50;3.00;;;5.40;85.40;;;;;;4980398;28;20058;-78
2021/12/05 04:01:44;;;;;;;10.07;3.17;;;5.40;85.50;;;;;;4975281;28;20513;-78
2021/12/05 04:04:11;;;;;;;8.85;2.95;;;5.40;85.40;;;;;;4982636;28;20115;-78
2021/12/05 04:06:37;;;;;;;9.38;3.00;;;5.50;85.50;;;;;;4979760;28;20118;-78
2021/12/05 04:09:08;;;;;;;7.05;2.88;;;5.40;85.30;;;;;;4982943;28;20053;-78
2021/12/05 04:11:39;;;;;;;9.25;3.20;;;5.40;85.40;;;;;;4978995;28;20022;-78
2021/12/05 04:14:08;;;;;;;12.35;3.55;;;5.40;85.50;;;;;;4973331;28;20027;-78
2021/12/05 04:16:34;;;;;;;7.72;2.70;;;5.40;85.40;;;;;;4976418;28;20026;-78
2021/12/05 04:19:00;;;;;;;8.88;3.25;;;5.40;85.50;;;;;;4984977;28;20030;-79
2021/12/05 04:21:26;;;;;;;8.73;3.00;;;5.30;85.40;;;;;;4972026;28;20027;-78
2021/12/05 04:23:52;;;;;;;9.18;3.30;;;5.40;85.50;;;;;;4972308;28;20434;-78
2021/12/05 04:26:18;;;;;;;10.07;3.30;;;5.30;85.50;;;;;;4979560;28;20086;-79
2021/12/05 04:28:47;;;;;;;12.25;3.88;;;5.30;85.60;;;;;;4977463;28;20057;-79
2021/12/05 04:31:14;;;;;;;8.52;3.40;;;5.30;85.60;;;;;;4983852;28;20022;-78
2021/12/05 04:33:39;;;;;;;8.30;3.20;;;5.40;85.70;;;;;;4975845;28;20049;-79
2021/12/05 04:36:06;;;;;;;6.95;2.80;;;5.40;85.70;;;;;;4978937;28;20485;-79
2021/12/05 04:38:32;;;;;;;8.77;3.92;;;5.50;85.80;;;;;;4986348;28;20026;-78
2021/12/05 04:40:58;;;;;;;8.60;3.53;;;5.50;85.90;;;;;;4984238;28;20162;-77
2021/12/05 04:43:23;;;;;;;8.35;3.60;;;5.40;85.60;;;;;;4987550;28;20109;-77
2021/12/05 04:45:49;;;;;;;6.65;2.97;;;5.40;85.60;;;;;;4981387;28;20037;-78
2021/12/05 04:48:16;;;;;;;8.35;3.55;;;5.50;85.80;;;;;;4978942;28;20085;-77
2021/12/05 04:50:42;;;;;;;6.07;2.90;;;5.50;85.70;;;;;;4982989;28;20585;-79
2021/12/05 04:53:08;;;;;;;7.22;3.85;;;5.60;85.80;;;;;;4973430;28;20089;-78
2021/12/05 04:55:35;;;;;;;5.93;2.60;;;5.60;85.70;;;;;;4972588;28;20490;-78
2021/12/05 04:58:04;;;;;;;7.32;3.30;;;5.60;85.60;;;;;;4983850;28;20385;-77
2021/12/05 05:00:34;;;;;;;8.35;3.22;;;5.60;85.60;;;;;;4973600;28;20101;-79
2021/12/05 05:02:59;;;;;;;7.78;3.85;;;5.60;85.60;;;;;;4980782;28;20595;-78
2021/12/05 05:05:28;;;;;;;7.53;3.25;;;5.60;85.60;;;;;;4979349;28;20038;-77
2021/12/05 05:07:54;;;;;;;7.72;3.72;;;5.50;85.60;;;;;;4979600;28;20023;-77
2021/12/05 05:10:25;;;;;;;7.10;3.25;;;5.50;85.60;;;;;;4973617;28;20019;-78
2021/12/05 05:12:51;;;;;;;7.18;3.30;;;5.50;85.70;;;;;;4976420;28;20069;-78
2021/12/05 05:15:20;;;;;;;7.65;3.50;;;5.50;85.80;;;;;;4978355;28;20035;-79
2021/12/05 05:17:48;;;;;;;6.63;3.47;;;5.50;85.80;;;;;;4974958;28;20030;-79
2021/12/05 05:20:22;;;;;;;6.82;3.10;;;5.50;85.80;;;;;;4988801;28;20057;-78
2021/12/05 05:39:05;;;;;;;7.70;3.00;;;5.60;85.90;;;;;;4980365;28;20718;-77
2021/12/05 05:47:01;;;;;;;7.13;3.75;;;5.60;85.80;;;;;;4985112;28;20089;-78
2021/12/05 05:51:59;;;;;;;4.22;3.10;;;5.70;85.90;;;;;;4984594;28;20034;-79
2021/12/05 05:54:25;;;;;;;6.95;3.97;;;5.70;85.90;;;;;;4981360;28;20034;-79
2021/12/05 05:56:56;;;;;;;6.45;3.83;;;5.70;85.80;;;;;;4977914;28;20026;-79
2021/12/05 05:59:27;;;;;;;8.40;4.03;;;5.70;85.80;;;;;;4984088;28;20030;-79
2021/12/05 06:04:19;;;;;;;9.40;4.07;;;5.70;85.60;;;;;;4980181;28;20126;-79
2021/12/05 06:06:45;;;;;;;8.93;4.65;;;5.70;85.60;;;;;;4980327;28;20046;-79
2021/12/05 06:09:10;;;;;;;9.23;4.18;;;5.70;85.60;;;;;;4988658;28;20018;-78
2021/12/05 06:11:36;;;;;;;5.43;3.35;;;5.60;85.50;;;;;;4983362;28;20053;-78
2021/12/05 06:14:03;;;;;;;6.88;3.78;;;5.70;85.70;;;;;;4981292;28;20081;-78
2021/12/05 06:16:30;;;;;;;5.10;2.95;;;5.70;85.60;;;;;;4980557;28;20022;-78
2021/12/05 06:18:55;;;;;;;7.45;3.50;;;5.70;85.70;;;;;;4991270;28;20034;-78
2021/12/05 06:21:22;;;;;;;6.75;3.30;;;5.70;85.70;;;;;;4984642;28;20030;-78
2021/12/05 06:23:47;;;;;;;6.15;3.03;;;5.70;85.70;;;;;;4981093;28;20251;-78
2021/12/05 06:26:20;;;;;;;6.35;3.25;;;5.70;85.70;;;;;;4975339;28;20485;-78
2021/12/05 06:28:55;;;;;;;9.05;3.50;;;5.70;85.70;;;;;;4983366;28;20105;-78
2021/12/05 06:37:28;;;;;;;8.65;3.95;;;5.80;85.80;;;;;;4979436;28;20794;-79
2021/12/05 06:40:17;;;;;;;6.45;3.47;;;5.70;85.50;;;;;;4980433;28;20109;-78
2021/12/05 06:42:59;;;;;;;6.97;3.85;;;5.80;85.70;;;;;;4984443;28;20039;-78
2021/12/05 06:48:08;;;;;;;5.63;2.65;;;5.80;85.70;;;;;;4983790;28;20049;-79
2021/12/05 06:50:34;;;;;;;5.13;3.03;;;5.80;85.70;;;;;;4987283;28;20056;-78
2021/12/05 06:53:00;;;;;;;4.50;2.63;;;5.90;85.80;;;;;;4987252;28;20069;-78
2021/12/05 06:55:26;;;;;;;6.40;3.50;;;5.90;85.80;;;;;;4982455;28;20019;-79
2021/12/05 06:57:52;;;;;;;5.50;3.13;;;5.90;86.50;;;;;;4987765;28;20367;-78
2021/12/05 07:00:22;;;;;;;6.38;3.40;;;5.90;85.80;;;;;;4979717;28;20046;-78
2021/12/05 07:02:47;;;;;;;6.55;3.22;;;5.90;85.80;;;;;;4996915;28;20038;-78
2021/12/05 07:07:45;;;;;;;5.82;3.15;;;5.80;85.80;;;;;;4984278;28;20541;-78
2021/12/05 07:10:13;;;;;;;4.72;3.10;;;5.80;85.90;;;;;;4981442;28;20107;-78
2021/12/05 07:13:29;;;;;;;6.00;2.72;;;5.80;86.00;;;;;;4975044;28;20027;-77
2021/12/05 07:26:18;;;;;;;6.30;3.10;;;5.90;85.90;;;;;;4977782;28;20053;-78
2021/12/05 07:42:27;;;;;;;4.20;3.20;;;6.00;85.80;;;;;;4982401;28;20181;-78
2021/12/05 07:44:56;;;;;;;5.32;3.20;;;5.90;85.70;;;;;;4984447;28;20019;-77
2021/12/05 07:47:25;;;;;;;3.72;3.03;;;5.90;85.80;;;;;;4992116;28;20028;-78
2021/12/05 07:49:53;;;;;;;5.85;3.85;;;6.00;85.80;;;;;;4982316;28;20647;-79
2021/12/05 07:52:22;;;;;;;5.25;3.78;;;5.90;85.70;;;;;;4978287;28;20042;-78
2021/12/05 07:54:56;;;;;;;6.28;5.28;;;5.90;85.70;;;;;;4984800;28;20027;-78
2021/12/05 07:57:31;;;;;;;6.47;4.93;;;5.90;85.70;;;;;;4978041;28;20433;-78
2021/12/05 08:16:27;;;;;;;2.78;2.53;;;5.70;85.70;;;;;;4978200;28;20044;-80
2021/12/05 08:18:53;;;;;;;3.73;3.07;;;5.70;85.70;;;;;;4976175;28;20069;-79
2021/12/05 08:21:19;;;;;;;3.80;3.40;;;5.70;85.70;;;;;;4975078;28;20046;-79
2021/12/05 08:23:49;;;;;;;4.43;3.60;;;5.80;85.70;;;;;;4977342;28;20057;-80
2021/12/05 08:26:26;;;;;;;4.05;3.05;;;5.70;85.50;;;;;;4981383;28;20034;-79
2021/12/05 08:42:30;;;;;;;4.30;3.40;;;5.70;85.60;;;;;;4986839;28;20031;-79
2021/12/05 09:20:57;;;;;;;3.50;3.20;;;5.80;85.60;;;;;;4981309;28;20038;-79
2021/12/05 09:26:18;;;;;;;3.60;3.20;;;5.90;85.70;;;;;;4976981;28;20027;-78
2021/12/05 09:40:07;;;;;;;4.32;3.90;;;5.90;86.10;;;;;;4992299;28;20035;-79
2021/12/05 10:01:30;;;;;;;4.07;3.67;;;6.00;86.10;;;;;;4983276;28;20526;-79
2021/12/05 10:02:23;;;;;;;7.68;5.65;;;6.00;86.20;;;;;;4985758;28;20053;-80
2021/12/05 10:15:40;;;;;;;8.65;5.40;;;6.00;86.50;;;;;;4977723;28;20039;-82
2021/12/05 10:35:23;;;;;;;5.55;4.47;;;6.00;86.50;;;;;;4990428;28;20037;-79
2021/12/05 10:37:55;;;;;;;6.18;4.78;;;6.00;86.60;;;;;;4980327;28;20169;-79
2021/12/05 10:40:33;;;;;;;4.68;3.72;;;6.00;86.70;;;;;;4979009;28;20026;-79
2021/12/05 10:42:59;;;;;;;6.80;5.57;;;6.00;86.70;;;;;;4981287;28;20113;-79
2021/12/05 10:45:38;;;;;;;5.95;4.65;;;6.10;86.70;;;;;;4977841;28;20480;-80
2021/12/05 10:48:07;;;;;;;4.70;3.60;;;6.00;86.70;;;;;;4983332;28;20117;-79
2021/12/05 10:50:39;;;;;;;5.45;4.10;;;6.10;86.80;;;;;;4981623;28;20384;-79
2021/12/05 10:53:25;;;;;;;4.70;4.20;;;6.10;86.80;;;;;;4984651;28;20096;-80
2021/12/05 10:56:30;;;;;;;6.47;4.53;;;6.10;86.80;;;;;;4976782;28;20031;-82
2021/12/05 10:59:29;;;;;;;4.85;4.35;;;6.10;86.80;;;;;;4981829;28;20089;-79
2021/12/05 11:02:01;;;;;;;3.78;3.30;;;6.10;86.80;;;;;;4992415;28;20038;-79
2021/12/05 11:04:34;;;;;;;4.68;4.00;;;6.10;86.80;;;;;;4992359;28;20019;-78
2021/12/05 11:07:01;;;;;;;;;;;6.20;86.80;;;;;;4986704;28;20114;-77
2021/12/05 11:09:35;;;;;;;5.32;4.60;;;6.20;86.70;;;;;;4982234;28;19916;-78
2021/12/05 11:12:14;;;;;;;4.72;4.13;;;6.20;86.80;;;;;;4984642;28;20030;-78
2021/12/05 11:14:43;;;;;;;5.93;4.60;;;6.20;86.80;;;;;;4987031;28;20053;-79
2021/12/05 11:17:25;;;;;;;6.47;4.57;;;6.20;86.80;;;;;;4987191;28;20042;-77
2021/12/05 11:19:59;;;;;;;3.80;3.25;;;6.20;86.70;;;;;;4990865;28;20030;-78
2021/12/05 11:22:32;;;;;;;6.05;4.82;;;6.20;86.80;;;;;;4987783;28;20046;-79
2021/12/05 11:24:57;;;;;;;5.75;4.72;;;6.20;86.80;;;;;;4986172;28;20109;-80
2021/12/05 11:27:40;;;;;;;6.35;5.10;;;6.20;86.90;;;;;;4985556;28;20114;-81
2021/12/05 11:30:31;;;;;;;5.63;4.70;;;6.20;87.00;;;;;;4987815;28;20030;-79
2021/12/05 11:33:02;;;;;;;6.28;4.93;;;6.10;87.10;;;;;;5008810;28;20076;-80
2021/12/05 11:35:31;;;;;;;5.88;4.90;;;6.20;87.50;;;;;;4987666;28;20109;-80
2021/12/05 11:38:17;;;;;;;6.10;4.93;;;6.20;87.40;;;;;;4991827;28;20520;-80
2021/12/05 11:41:02;;;;;;;6.68;4.88;;;6.30;87.40;;;;;;4994137;28;20018;-81
2021/12/05 11:43:32;;;;;;;6.75;5.40;;;6.30;87.30;;;;;;4991962;28;20037;-82
2021/12/05 11:46:08;;;;;;;5.22;4.25;;;6.30;87.20;;;;;;4989662;28;20029;-81
2021/12/05 11:48:42;;;;;;;5.03;4.13;;;6.30;87.20;;;;;;4990097;28;20038;-82
2021/12/05 11:51:27;;;;;;;5.65;4.38;;;6.40;87.10;;;;;;4985202;28;20033;-82
2021/12/05 11:53:58;;;;;;;6.32;4.68;;;6.40;87.00;;;;;;4976077;28;20073;-81
2021/12/05 11:56:29;;;;;;;5.55;4.32;;;6.40;87.00;;;;;;4981667;28;20026;-80
2021/12/05 11:59:05;;;;;;;6.18;4.95;;;6.40;87.00;;;;;;4983972;28;20481;-80
2021/12/05 12:01:50;;;;;;;4.78;4.00;;;6.50;87.00;;;;;;4984050;28;20019;-81
2021/12/05 12:04:19;;;;;;;6.03;4.40;;;6.40;86.90;;;;;;4978456;28;20099;-81
2021/12/05 12:07:03;;;;;;;6.78;5.43;;;6.50;87.00;;;;;;4981767;28;20109;-81
2021/12/05 12:09:29;;;;;;;7.20;5.50;;;6.50;86.80;;;;;;4979438;28;20080;-81
2021/12/05 12:11:54;;;;;;;6.20;5.38;;;6.50;86.80;;;;;;4989168;28;20026;-80
2021/12/05 12:14:20;;;;;;;4.15;3.72;;;6.40;86.70;;;;;;4981091;28;20598;-80
2021/12/05 12:16:48;;;;;;;5.25;4.50;;;6.50;86.80;;;;;;4984499;28;20026;-81
2021/12/05 12:19:20;;;;;;;5.13;4.63;;;6.50;86.70;;;;;;4980496;28;20089;-82
2021/12/05 12:21:48;;;;;;;5.45;4.70;;;6.50;86.70;;;;;;4983791;28;20014;-82
2021/12/05 12:24:15;;;;;;;6.00;4.78;;;6.50;86.70;;;;;;4985053;28;20080;-82
2021/12/05 12:26:41;;;;;;;5.75;4.63;;;6.50;86.70;;;;;;4985127;28;20053;-81
2021/12/05 12:29:09;;;;;;;6.30;5.22;;;6.50;86.70;;;;;;4992971;28;20030;-81
2021/12/05 12:31:36;;;;;;;5.32;4.70;;;6.50;86.60;;;;;;4986295;28;20110;-81
2021/12/05 12:34:08;;;;;;;3.60;3.30;;;6.50;86.80;;;;;;4986616;28;20053;-81
2021/12/05 12:36:50;;;;;;;5.68;4.65;;;6.60;86.90;;;;;;4984566;28;20034;-81
2021/12/05 12:39:16;;;;;;;11.90;4.97;;;6.60;86.80;;;;;;4993175;28;20456;-82
2021/12/05 12:42:00;;;;;;;5.60;4.55;;;6.60;86.70;;;;;;4990131;28;20110;-82
2021/12/05 12:44:26;;;;;;;3.08;2.70;;;6.60;86.80;;;;;;4987289;28;20639;-81
2021/12/05 12:46:57;;;;;;;6.13;5.35;;;6.60;86.80;;;;;;4985295;28;20034;-79
2021/12/05 12:49:27;;;;;;;5.72;4.72;;;6.50;86.70;;;;;;4989317;28;20026;-79
2021/12/05 12:52:08;;;;;;;6.15;4.68;;;6.40;86.80;;;;;;4986773;28;20034;-82
2021/12/05 12:54:44;;;;;;;6.28;5.45;;;6.40;87.00;;;;;;4993432;28;20033;-82
2021/12/05 12:57:24;;;;;;;6.38;4.80;;;6.40;87.10;;;;;;4989165;28;20121;-81
2021/12/05 13:00:00;;;;;;;5.93;3.90;;;6.40;87.20;;;;;;4988604;28;20077;-80
2021/12/05 13:04:16;;;;;;;6.45;5.55;;;6.40;87.20;;;;;;4985226;28;20045;-82
2021/12/05 13:11:18;;;;;;;7.22;5.20;;;6.30;87.30;;;;;;4983620;28;20065;-82
2021/12/05 13:13:56;;;;;;;6.47;4.53;;;6.30;87.40;;;;;;4984531;28;20022;-80
2021/12/05 13:16:27;;;;;;;5.00;3.75;;;6.30;87.40;;;;;;4980410;28;20031;-81
2021/12/05 13:19:07;;;;;;;4.78;3.97;;;6.30;87.30;;;;;;4981905;28;20015;-81
2021/12/05 13:21:38;;;;;;;5.03;4.22;;;6.40;87.30;;;;;;4987668;28;20110;-80
2021/12/05 13:24:31;;;;;;;4.25;3.75;;;6.40;87.20;;;;;;4980871;28;20034;-81
2021/12/05 13:27:09;;;;;;;3.80;3.10;;;6.30;87.20;;;;;;4976471;28;20031;-80
2021/12/05 13:29:49;;;;;;;8.75;4.85;;;6.40;87.30;;;;;;4982144;28;20046;-83
2021/12/05 13:32:29;;;;;;;3.17;2.88;;;6.30;87.40;;;;;;4981316;28;20061;-83
2021/12/05 13:35:03;;;;;;;4.90;3.95;;;6.40;87.40;;;;;;4971356;28;20160;-83
2021/12/05 13:37:40;;;;;;;3.63;3.08;;;6.40;87.30;;;;;;4980910;28;20116;-82
2021/12/05 13:40:14;;;;;;;5.45;3.70;;;6.40;87.30;;;;;;4983022;28;20027;-82
2021/12/05 13:42:53;;;;;;;4.80;4.13;;;6.40;87.10;;;;;;4983955;28;20038;-82
2021/12/05 13:45:31;;;;;;;4.07;3.22;;;6.40;87.00;;;;;;4979672;28;20026;-82
2021/12/05 13:47:58;;;;;;;5.78;3.83;;;6.40;87.00;;;;;;4979743;28;20441;-81
2021/12/05 13:50:30;;;;;;;3.90;3.50;;;6.40;86.90;;;;;;4981142;28;20026;-82
2021/12/05 13:53:02;;;;;;;;;;;6.30;86.70;;;;;;4979310;28;21374;-81
2021/12/05 13:55:45;;;;;;;7.55;6.60;;;6.30;86.50;;;;;;4982556;28;20008;-83
2021/12/05 13:58:29;;;;;;;5.45;4.35;;;6.40;87.40;;;;;;4980319;28;20038;-81
2021/12/05 14:01:22;;;;;;;4.88;4.15;;;6.30;86.60;;;;;;4982122;28;20030;-82
2021/12/05 14:03:50;;;;;;;5.07;4.25;;;6.30;86.50;;;;;;4979332;28;20046;-81
2021/12/05 14:06:33;;;;;;;5.80;4.40;;;6.30;86.50;;;;;;4981039;28;20157;-82
2021/12/05 14:09:19;;;;;;;3.83;3.42;;;6.20;86.50;;;;;;4975616;28;20601;-82
2021/12/05 14:11:49;;;;;;;5.80;4.00;;;6.30;86.60;;;;;;4982119;28;20030;-82
2021/12/05 14:14:17;;;;;;;4.43;3.90;;;6.30;86.60;;;;;;4990511;28;20030;-80
2021/12/05 14:16:44;;;;;;;3.85;3.45;;;6.40;86.50;;;;;;4981718;28;20035;-80
2021/12/05 14:19:16;;;;;;;4.35;3.88;;;6.40;86.50;;;;;;4989521;28;20031;-81
2021/12/05 14:21:47;;;;;;;3.22;2.80;;;6.50;86.40;;;;;;4991627;28;20030;-81
2021/12/05 14:24:15;;;;;;;3.80;3.20;;;6.60;86.30;;;;;;5005725;28;20116;-81
2021/12/05 14:26:40;;;;;;;6.20;4.93;;;6.60;86.20;;;;;;4981962;28;20452;-81
2021/12/05 14:29:06;;;;;;;5.10;4.30;;;6.60;85.90;;;;;;4988329;28;20062;-80
2021/12/05 14:31:37;;;;;;;22.10;16.38;;;6.60;85.80;;;;;;4988494;28;20872;-80
2021/12/05 14:34:04;;;;;;;15.18;12.10;;;6.60;86.00;;;;;;4986711;28;20019;-80
2021/12/05 14:36:39;;;;;;;7.65;6.50;;;6.70;86.00;;;;;;4985079;28;20499;-79
2021/12/05 14:39:29;;;;;;;6.82;5.03;;;6.70;85.90;;;;;;4984086;28;20023;-79
2021/12/05 14:42:00;;;;;;;4.72;4.13;;;6.70;85.90;;;;;;4993567;28;20046;-79
2021/12/05 14:44:26;;;;;;;4.97;4.40;;;6.60;85.80;;;;;;4987148;28;20035;-79
2021/12/05 14:46:56;;;;;;;5.38;4.13;;;6.60;85.80;;;;;;4983401;28;20061;-79
2021/12/05 14:49:28;;;;;;;4.95;4.45;;;6.60;85.80;;;;;;4984988;28;20026;-79
2021/12/05 14:51:55;;;;;;;6.47;5.10;;;6.60;85.80;;;;;;4978628;28;20023;-78
2021/12/05 14:54:25;;;;;;;5.60;4.80;;;6.60;85.90;;;;;;4978170;28;20085;-80
2021/12/05 14:56:52;;;;;;;7.38;5.90;;;6.70;86.10;;;;;;4987896;28;20022;-79
2021/12/05 14:59:20;;;;;;;5.85;4.95;;;6.70;85.80;;;;;;4983082;28;20033;-79
2021/12/05 15:01:51;;;;;;;6.72;5.35;;;6.60;85.80;;;;;;4983310;28;20026;-79
2021/12/05 15:04:23;;;;;;;4.95;4.40;;;6.50;85.80;;;;;;4982957;28;20109;-79
2021/12/05 15:06:49;;;;;;;7.88;5.38;;;6.50;86.10;;;;;;4981419;28;20050;-79
2021/12/05 15:09:23;;;;;;;5.20;4.40;;;6.50;86.20;;;;;;4982919;28;20032;-79
2021/12/05 15:11:53;;;;;;;6.90;5.50;;;6.50;86.20;;;;;;4983635;28;20022;-80
2021/12/05 15:14:20;;;;;;;5.80;4.90;;;6.50;86.30;;;;;;4981277;28;20628;-79
2021/12/05 15:17:01;;;;;;;6.68;5.55;;;6.50;86.30;;;;;;4996932;28;20063;-80
2021/12/05 15:19:26;;;;;;;7.35;5.45;;;6.50;86.40;;;;;;4978220;28;20062;-80
2021/12/05 15:21:52;;;;;;;7.32;5.60;;;6.40;86.40;;;;;;4980932;28;20065;-79
2021/12/05 15:24:20;;;;;;;6.57;5.40;;;6.40;86.50;;;;;;4979473;28;20066;-80
2021/12/05 15:26:46;;;;;;;7.47;5.80;;;6.40;86.50;;;;;;4979704;28;20355;-79
2021/12/05 15:29:12;;;;;;;8.45;6.28;;;6.40;86.50;;;;;;4980490;28;20037;-79
2021/12/05 15:31:40;;;;;;;5.97;4.30;;;6.40;86.60;;;;;;4982081;28;20445;-79
2021/12/05 15:34:22;;;;;;;7.55;5.40;;;6.40;86.70;;;;;;4979431;28;20108;-79
2021/12/05 15:36:49;;;;;;;5.88;4.45;;;6.30;86.70;;;;;;4976085;28;20450;-79
2021/12/05 15:39:19;;;;;;;7.32;5.80;;;6.40;86.70;;;;;;4981940;28;20026;-81
2021/12/05 15:41:46;;;;;;;7.68;4.90;;;6.30;86.60;;;;;;4980568;28;20069;-79
2021/12/05 15:44:33;;;;;;;4.72;4.20;;;6.30;86.70;;;;;;4977364;28;20030;-79
2021/12/05 15:47:32;;;;;;;4.97;3.88;;;6.30;86.80;;;;;;4983277;28;20030;-79
2021/12/05 15:50:09;;;;;;;8.50;6.45;;;6.30;86.80;;;;;;5001411;28;20041;-80
2021/12/05 15:52:42;;;;;;;8.10;5.40;;;6.30;87.00;;;;;;4979612;28;20122;-79
2021/12/05 15:55:20;;;;;;;7.55;5.57;;;6.30;86.80;;;;;;4991017;28;20037;-80
2021/12/05 15:57:50;;;;;;;9.57;5.50;;;6.20;86.80;;;;;;4989099;28;20082;-78
2021/12/05 16:00:16;;;;;;;6.45;4.97;;;6.20;86.80;;;;;;4984861;28;20045;-78
2021/12/05 16:02:46;;;;;;;6.72;4.68;;;6.20;86.80;;;;;;4983472;28;20070;-78
2021/12/05 16:05:18;;;;;;;6.63;4.75;;;6.30;86.90;;;;;;4992643;28;20099;-79
2021/12/05 16:07:44;;;;;;;4.50;3.38;;;6.30;86.90;;;;;;4990920;28;20400;-79
2021/12/05 16:10:21;;;;;;;10.75;7.90;;;6.40;86.90;;;;;;4991294;28;20033;-80
2021/12/05 16:12:50;;;;;;;9.57;7.38;;;6.40;86.60;;;;;;4986593;28;20022;-79
2021/12/05 16:15:18;;;;;;;8.70;6.32;;;6.30;86.50;;;;;;4989263;28;20022;-78
2021/12/05 16:17:55;;;;;;;9.63;8.20;;;6.30;86.60;;;;;;4989546;28;20031;-83
2021/12/05 16:20:25;;;;;;;9.10;6.53;;;6.20;86.60;;;;;;4984631;28;20060;-78
2021/12/05 16:23:21;;;;;;;8.10;6.00;;;6.30;86.80;;;;;;4982487;28;20444;-79
2021/12/05 16:26:04;;;;;;;6.07;4.65;;;6.30;86.80;;;;;;4974851;28;20117;-80
2021/12/05 16:28:37;;;;;;;6.35;5.15;;;6.30;86.80;;;;;;4983198;28;20106;-78
2021/12/05 16:31:09;;;;;;;7.85;6.53;;;6.30;86.80;;;;;;4991568;28;20094;-80
2021/12/05 16:33:35;;;;;;;9.50;6.65;;;6.30;86.80;;;;;;4984510;28;20022;-78
2021/12/05 16:36:02;;;;;;;7.57;5.90;;;6.30;86.70;;;;;;4988885;28;20046;-78
2021/12/05 16:38:36;;;;;;;7.78;6.30;;;6.30;86.70;;;;;;4985630;28;20034;-80
2021/12/05 16:41:07;;;;;;;8.73;6.55;;;6.30;86.70;;;;;;4989282;28;20027;-79
2021/12/05 16:43:36;;;;;;;6.28;5.22;;;6.10;86.60;;;;;;4982024;28;20038;-78
2021/12/05 16:46:09;;;;;;;10.77;6.05;;;6.20;86.90;;;;;;4987921;28;20062;-77
2021/12/05 16:48:37;;;;;;;7.78;5.88;;;6.20;86.90;;;;;;4986076;28;20080;-79
2021/12/05 16:51:30;;;;;;;8.00;5.70;;;6.10;86.90;;;;;;4984614;28;20478;-79
2021/12/05 16:54:03;;;;;;;9.02;6.70;;;6.00;87.00;;;;;;4996848;28;20125;-79
2021/12/05 16:56:40;;;;;;;9.48;6.07;;;6.00;87.20;;;;;;4995266;28;20037;-79
2021/12/05 16:59:13;;;;;;;8.43;5.95;;;6.00;87.20;;;;;;4992620;28;20633;-79
2021/12/05 17:01:38;;;;;;;8.25;5.28;;;6.00;87.30;;;;;;4985726;28;20907;-78
2021/12/05 17:04:04;;;;;;;8.20;5.80;;;6.00;87.30;;;;;;4990353;28;20050;-80
2021/12/05 17:06:53;;;;;;;8.80;6.68;;;6.00;87.30;;;;;;4989132;28;20023;-81
2021/12/05 17:09:20;;;;;;;8.13;6.90;;;6.00;87.40;;;;;;4991098;28;20038;-79
2021/12/05 17:11:46;;;;;;;9.85;6.40;;;6.00;87.20;;;;;;4984335;28;20504;-80
2021/12/05 17:14:25;;;;;;;8.80;6.70;;;6.10;87.30;;;;;;4976987;28;20030;-78
2021/12/05 17:16:51;;;;;;;7.07;5.32;;;6.10;87.10;;;;;;4986211;28;20053;-78
2021/12/05 17:19:19;;;;;;;7.85;5.30;;;6.10;87.10;;;;;;4986536;28;20068;-80
2021/12/05 17:21:49;;;;;;;8.10;5.47;;;6.20;87.00;;;;;;4988305;28;20034;-79
2021/12/05 17:24:22;;;;;;;10.63;7.72;;;6.10;87.00;;;;;;4986181;28;20085;-78
2021/12/05 17:26:55;;;;;;;10.07;7.07;;;6.10;86.90;;;;;;4986058;28;20724;-78
2021/12/05 17:29:30;;;;;;;12.38;7.32;;;6.20;86.90;;;;;;4992823;28;20086;-79
2021/12/05 17:31:59;;;;;;;11.45;7.90;;;6.20;86.90;;;;;;4982283;28;20018;-80
2021/12/05 17:34:40;;;;;;;10.38;7.90;;;6.20;86.80;;;;;;4991173;28;20031;-82
2021/12/05 17:37:13;;;;;;;10.43;7.47;;;6.20;86.80;;;;;;4997292;28;20048;-80
2021/12/05 17:39:42;;;;;;;10.70;7.80;;;6.20;87.40;;;;;;4985914;28;20117;-80
2021/12/05 17:42:12;;;;;;;10.05;7.50;;;6.20;86.70;;;;;;4986746;28;20077;-82
2021/12/05 17:44:40;;;;;;;9.32;6.93;;;6.20;86.80;;;;;;4978760;28;20022;-80
2021/12/05 17:47:08;;;;;;;11.23;7.90;;;6.30;86.80;;;;;;4977123;28;20034;-80
2021/12/05 17:49:36;;;;;;;12.40;8.05;;;6.20;86.70;;;;;;4979483;28;20057;-79
2021/12/05 17:52:03;;;;;;;11.45;7.97;;;6.20;86.70;;;;;;4981916;28;20038;-81
2021/12/05 17:54:36;;;;;;;10.13;7.60;;;6.30;86.70;;;;;;4981046;28;20109;-81
2021/12/05 17:57:08;;;;;;;11.27;8.10;;;6.30;86.70;;;;;;4986133;28;20026;-80
2021/12/05 17:59:55;;;;;;;11.73;7.60;;;6.40;86.60;;;;;;4978667;28;20027;-80
2021/12/05 18:05:08;;;;;;;9.90;7.40;;;6.40;86.40;;;;;;4982197;28;20038;-81
2021/12/05 18:07:34;;;;;;;8.82;6.72;;;6.40;86.30;;;;;;4981253;28;20037;-80
2021/12/05 18:10:00;;;;;;;8.90;6.60;;;6.50;86.30;;;;;;4982951;28;20023;-81
2021/12/05 18:12:34;;;;;;;7.82;5.72;;;6.50;86.30;;;;;;4985678;28;20077;-80
2021/12/05 18:15:14;;;;;;;9.13;6.13;;;6.50;86.30;;;;;;4979286;28;20482;-82
2021/12/05 18:17:40;;;;;;;9.80;6.40;;;6.60;86.30;;;;;;4977715;28;20038;-81
2021/12/05 18:20:07;;;;;;;7.38;4.95;;;6.60;86.30;;;;;;4983803;28;20026;-81
2021/12/05 18:22:33;;;;;;;8.27;6.40;;;6.60;86.20;;;;;;4983175;28;20085;-81
2021/12/05 18:24:58;;;;;;;8.27;6.43;;;6.60;86.10;;;;;;4986125;28;20477;-80